sensor_id;sensor_type;location;lat;lon;timestamp;P1;durP1;ratioP1;P2;durP2;ratioP2
62951;SDS011;52163;52.212;-1.002;2023-02-13T00:00:03;12.40;;;9.40;;
62951;SDS011;52163;52.212;-1.002;2023-02-13T00:02:32;12.30;;;10.10;;
62951;SDS011;52163;52.212;-1.002;2023-02-13T00:04:57;11.90;;;9.70;;
62951;SDS011;52163;52.212;-1.002;2023-02-13T00:07:23;10.50;;;9.40;;
62951;SDS011;52163;52.212;-1.002;2023-02-13T00:09:48;10.00;;;8.70;;
62951;SDS011;52163;52.212;-1.002;2023-02-13T00:12:13;9.70;;;8.20;;
62951;SDS011;52163;52.212;-1.002;2023-02-13T00:14:39;10.10;;;8.40;;
62951;SDS011;52163;52.212;-1.002;2023-02-13T00:17:05;11.70;;;8.30;;
62951;SDS011;52163;52.212;-1.002;2023-02-13T00:19:30;11.20;;;8.10;;
62951;SDS011;52163;52.212;-1.002;2023-02-13T00:21:56;12.20;;;8.90;;
62951;SDS011;52163;52.212;-1.002;2023-02-13T00:24:21;12.60;;;8.60;;
62951;SDS011;52163;52.212;-1.002;2023-02-13T00:26:47;10.70;;;7.90;;
62951;SDS011;52163;52.212;-1.002;2023-02-13T00:29:12;13.20;;;10.20;;
62951;SDS011;52163;52.212;-1.002;2023-02-13T00:31:38;12.90;;;10.00;;
62951;SDS011;52163;52.212;-1.002;2023-02-13T00:34:03;11.00;;;8.80;;
62951;SDS011;52163;52.212;-1.002;2023-02-13T00:36:28;11.00;;;9.10;;
62951;SDS011;52163;52.212;-1.002;2023-02-13T00:38:54;13.50;;;9.80;;
62951;SDS011;52163;52.212;-1.002;2023-02-13T00:41:19;12.10;;;9.20;;
62951;SDS011;52163;52.212;-1.002;2023-02-13T00:43:46;13.90;;;10.00;;
62951;SDS011;52163;52.212;-1.002;2023-02-13T00:46:12;11.30;;;8.80;;
62951;SDS011;52163;52.212;-1.002;2023-02-13T00:48:38;13.60;;;10.10;;
62951;SDS011;52163;52.212;-1.002;2023-02-13T00:51:05;13.10;;;9.50;;
62951;SDS011;52163;52.212;-1.002;2023-02-13T00:53:31;14.00;;;9.50;;
62951;SDS011;52163;52.212;-1.002;2023-02-13T00:55:58;13.20;;;9.40;;
62951;SDS011;52163;52.212;-1.002;2023-02-13T00:58:24;13.80;;;9.60;;
62951;SDS011;52163;52.212;-1.002;2023-02-13T01:00:50;14.80;;;11.10;;
62951;SDS011;52163;52.212;-1.002;2023-02-13T01:03:17;14.70;;;10.30;;
62951;SDS011;52163;52.212;-1.002;2023-02-13T01:05:44;15.00;;;9.90;;
62951;SDS011;52163;52.212;-1.002;2023-02-13T01:08:11;13.90;;;9.60;;
62951;SDS011;52163;52.212;-1.002;2023-02-13T01:10:38;12.60;;;9.60;;
62951;SDS011;52163;52.212;-1.002;2023-02-13T01:13:05;12.30;;;9.70;;
62951;SDS011;52163;52.212;-1.002;2023-02-13T01:15:31;14.20;;;10.10;;
62951;SDS011;52163;52.212;-1.002;2023-02-13T01:17:57;14.00;;;9.30;;
62951;SDS011;52163;52.212;-1.002;2023-02-13T01:20:23;13.60;;;9.50;;
62951;SDS011;52163;52.212;-1.002;2023-02-13T01:22:49;14.00;;;9.00;;
62951;SDS011;52163;52.212;-1.002;2023-02-13T01:25:15;13.90;;;9.80;;
62951;SDS011;52163;52.212;-1.002;2023-02-13T01:27:41;15.40;;;9.80;;
62951;SDS011;52163;52.212;-1.002;2023-02-13T01:30:08;18.60;;;10.60;;
62951;SDS011;52163;52.212;-1.002;2023-02-13T01:32:40;13.80;;;10.00;;
62951;SDS011;52163;52.212;-1.002;2023-02-13T01:35:08;14.30;;;10.00;;
62951;SDS011;52163;52.212;-1.002;2023-02-13T01:37:35;17.30;;;9.90;;
62951;SDS011;52163;52.212;-1.002;2023-02-13T01:40:01;14.50;;;9.50;;
62951;SDS011;52163;52.212;-1.002;2023-02-13T01:42:28;14.60;;;9.10;;
62951;SDS011;52163;52.212;-1.002;2023-02-13T01:44:55;15.20;;;10.10;;
62951;SDS011;52163;52.212;-1.002;2023-02-13T01:47:34;13.70;;;9.70;;
62951;SDS011;52163;52.212;-1.002;2023-02-13T01:53:09;14.20;;;9.30;;
62951;SDS011;52163;52.212;-1.002;2023-02-13T01:55:43;15.10;;;9.40;;
62951;SDS011;52163;52.212;-1.002;2023-02-13T01:58:14;15.30;;;10.00;;
62951;SDS011;52163;52.212;-1.002;2023-02-13T02:00:44;12.40;;;8.70;;
62951;SDS011;52163;52.212;-1.002;2023-02-13T02:03:24;14.10;;;9.20;;
62951;SDS011;52163;52.212;-1.002;2023-02-13T02:05:51;14.10;;;8.90;;
62951;SDS011;52163;52.212;-1.002;2023-02-13T02:08:21;14.40;;;8.90;;
62951;SDS011;52163;52.212;-1.002;2023-02-13T02:10:47;11.50;;;8.40;;
62951;SDS011;52163;52.212;-1.002;2023-02-13T02:13:14;15.20;;;9.20;;
62951;SDS011;52163;52.212;-1.002;2023-02-13T02:15:45;14.10;;;8.30;;
62951;SDS011;52163;52.212;-1.002;2023-02-13T02:18:16;14.00;;;9.70;;
62951;SDS011;52163;52.212;-1.002;2023-02-13T02:20:47;14.60;;;9.20;;
62951;SDS011;52163;52.212;-1.002;2023-02-13T02:32:27;13.80;;;8.80;;
62951;SDS011;52163;52.212;-1.002;2023-02-13T02:45:53;13.90;;;9.10;;
62951;SDS011;52163;52.212;-1.002;2023-02-13T02:51:35;14.10;;;9.00;;
62951;SDS011;52163;52.212;-1.002;2023-02-13T02:57:09;17.60;;;10.00;;
62951;SDS011;52163;52.212;-1.002;2023-02-13T02:59:45;17.40;;;10.40;;
62951;SDS011;52163;52.212;-1.002;2023-02-13T03:02:32;15.60;;;9.70;;
62951;SDS011;52163;52.212;-1.002;2023-02-13T03:05:19;15.90;;;9.50;;
62951;SDS011;52163;52.212;-1.002;2023-02-13T03:08:07;18.10;;;10.00;;
62951;SDS011;52163;52.212;-1.002;2023-02-13T03:10:34;18.70;;;10.30;;
62951;SDS011;52163;52.212;-1.002;2023-02-13T03:13:32;16.00;;;10.80;;
62951;SDS011;52163;52.212;-1.002;2023-02-13T03:16:05;15.20;;;9.40;;
62951;SDS011;52163;52.212;-1.002;2023-02-13T03:18:54;17.20;;;10.20;;
62951;SDS011;52163;52.212;-1.002;2023-02-13T03:21:52;17.80;;;10.30;;
62951;SDS011;52163;52.212;-1.002;2023-02-13T03:35:48;16.60;;;10.10;;
62951;SDS011;52163;52.212;-1.002;2023-02-13T03:41:29;17.50;;;10.00;;
62951;SDS011;52163;52.212;-1.002;2023-02-13T03:46:37;16.40;;;10.70;;
62951;SDS011;52163;52.212;-1.002;2023-02-13T03:49:06;20.20;;;10.80;;
62951;SDS011;52163;52.212;-1.002;2023-02-13T03:52:05;20.10;;;11.20;;
62951;SDS011;52163;52.212;-1.002;2023-02-13T03:54:42;18.60;;;11.40;;
62951;SDS011;52163;52.212;-1.002;2023-02-13T03:57:26;18.60;;;10.60;;
62951;SDS011;52163;52.212;-1.002;2023-02-13T04:00:14;18.20;;;11.30;;
62951;SDS011;52163;52.212;-1.002;2023-02-13T04:02:47;19.10;;;11.40;;
62951;SDS011;52163;52.212;-1.002;2023-02-13T04:05:25;17.00;;;10.40;;
62951;SDS011;52163;52.212;-1.002;2023-02-13T04:07:55;21.20;;;12.10;;
62951;SDS011;52163;52.212;-1.002;2023-02-13T04:10:20;20.70;;;11.30;;
62951;SDS011;52163;52.212;-1.002;2023-02-13T04:12:55;19.10;;;11.50;;
62951;SDS011;52163;52.212;-1.002;2023-02-13T04:15:31;20.00;;;11.60;;
62951;SDS011;52163;52.212;-1.002;2023-02-13T04:18:18;22.70;;;12.50;;
62951;SDS011;52163;52.212;-1.002;2023-02-13T04:20:47;17.90;;;11.00;;
62951;SDS011;52163;52.212;-1.002;2023-02-13T04:23:13;18.00;;;10.80;;
62951;SDS011;52163;52.212;-1.002;2023-02-13T04:25:40;19.40;;;11.30;;
62951;SDS011;52163;52.212;-1.002;2023-02-13T04:28:09;18.10;;;11.70;;
62951;SDS011;52163;52.212;-1.002;2023-02-13T04:30:35;18.20;;;11.10;;
62951;SDS011;52163;52.212;-1.002;2023-02-13T04:33:00;18.80;;;11.30;;
62951;SDS011;52163;52.212;-1.002;2023-02-13T04:35:25;16.30;;;10.50;;
62951;SDS011;52163;52.212;-1.002;2023-02-13T04:37:51;18.30;;;11.00;;
62951;SDS011;52163;52.212;-1.002;2023-02-13T04:40:17;18.10;;;11.20;;
62951;SDS011;52163;52.212;-1.002;2023-02-13T04:42:42;19.60;;;11.70;;
62951;SDS011;52163;52.212;-1.002;2023-02-13T04:45:08;19.70;;;11.20;;
62951;SDS011;52163;52.212;-1.002;2023-02-13T04:47:34;20.00;;;11.30;;
62951;SDS011;52163;52.212;-1.002;2023-02-13T04:49:59;19.60;;;11.50;;
62951;SDS011;52163;52.212;-1.002;2023-02-13T04:52:24;20.90;;;11.40;;
62951;SDS011;52163;52.212;-1.002;2023-02-13T04:54:50;20.20;;;11.60;;
62951;SDS011;52163;52.212;-1.002;2023-02-13T04:57:15;20.40;;;11.40;;
62951;SDS011;52163;52.212;-1.002;2023-02-13T04:59:41;21.50;;;12.30;;
62951;SDS011;52163;52.212;-1.002;2023-02-13T05:02:06;19.30;;;11.90;;
62951;SDS011;52163;52.212;-1.002;2023-02-13T05:04:32;20.00;;;12.00;;
62951;SDS011;52163;52.212;-1.002;2023-02-13T05:06:57;21.00;;;11.20;;
62951;SDS011;52163;52.212;-1.002;2023-02-13T05:09:23;22.90;;;12.70;;
62951;SDS011;52163;52.212;-1.002;2023-02-13T05:11:51;23.20;;;12.60;;
62951;SDS011;52163;52.212;-1.002;2023-02-13T05:14:17;21.80;;;12.30;;
62951;SDS011;52163;52.212;-1.002;2023-02-13T05:16:43;21.30;;;12.00;;
62951;SDS011;52163;52.212;-1.002;2023-02-13T05:19:08;19.70;;;12.20;;
62951;SDS011;52163;52.212;-1.002;2023-02-13T05:21:34;20.90;;;12.50;;
62951;SDS011;52163;52.212;-1.002;2023-02-13T05:24:18;20.60;;;10.80;;
62951;SDS011;52163;52.212;-1.002;2023-02-13T05:26:43;22.50;;;11.90;;
62951;SDS011;52163;52.212;-1.002;2023-02-13T05:29:09;21.80;;;12.50;;
62951;SDS011;52163;52.212;-1.002;2023-02-13T05:31:45;22.90;;;13.10;;
62951;SDS011;52163;52.212;-1.002;2023-02-13T05:34:11;22.20;;;12.60;;
62951;SDS011;52163;52.212;-1.002;2023-02-13T05:36:37;20.60;;;12.40;;
62951;SDS011;52163;52.212;-1.002;2023-02-13T05:39:02;21.70;;;13.00;;
62951;SDS011;52163;52.212;-1.002;2023-02-13T05:41:28;25.00;;;12.70;;
62951;SDS011;52163;52.212;-1.002;2023-02-13T05:43:53;21.00;;;12.10;;
62951;SDS011;52163;52.212;-1.002;2023-02-13T05:46:19;20.10;;;12.00;;
62951;SDS011;52163;52.212;-1.002;2023-02-13T05:48:44;24.00;;;13.30;;
62951;SDS011;52163;52.212;-1.002;2023-02-13T05:51:10;20.00;;;11.70;;
62951;SDS011;52163;52.212;-1.002;2023-02-13T05:53:35;24.70;;;13.20;;
62951;SDS011;52163;52.212;-1.002;2023-02-13T05:56:01;22.70;;;12.10;;
62951;SDS011;52163;52.212;-1.002;2023-02-13T05:58:28;25.50;;;12.40;;
62951;SDS011;52163;52.212;-1.002;2023-02-13T06:00:54;20.60;;;11.30;;
62951;SDS011;52163;52.212;-1.002;2023-02-13T06:03:25;20.50;;;12.70;;
62951;SDS011;52163;52.212;-1.002;2023-02-13T06:05:52;23.90;;;13.20;;
62951;SDS011;52163;52.212;-1.002;2023-02-13T06:08:18;19.70;;;11.70;;
62951;SDS011;52163;52.212;-1.002;2023-02-13T06:10:44;19.40;;;11.80;;
62951;SDS011;52163;52.212;-1.002;2023-02-13T06:13:14;22.00;;;12.50;;
62951;SDS011;52163;52.212;-1.002;2023-02-13T06:15:40;22.90;;;12.70;;
62951;SDS011;52163;52.212;-1.002;2023-02-13T06:18:06;24.30;;;12.30;;
62951;SDS011;52163;52.212;-1.002;2023-02-13T06:20:31;23.10;;;12.90;;
62951;SDS011;52163;52.212;-1.002;2023-02-13T06:22:57;23.20;;;12.00;;
62951;SDS011;52163;52.212;-1.002;2023-02-13T06:25:23;23.60;;;12.70;;
62951;SDS011;52163;52.212;-1.002;2023-02-13T06:27:48;23.40;;;12.10;;
62951;SDS011;52163;52.212;-1.002;2023-02-13T06:30:14;25.00;;;13.10;;
62951;SDS011;52163;52.212;-1.002;2023-02-13T06:32:40;23.20;;;13.00;;
62951;SDS011;52163;52.212;-1.002;2023-02-13T06:35:07;21.30;;;12.40;;
62951;SDS011;52163;52.212;-1.002;2023-02-13T06:37:33;22.80;;;13.00;;
62951;SDS011;52163;52.212;-1.002;2023-02-13T06:40:00;24.00;;;13.60;;
62951;SDS011;52163;52.212;-1.002;2023-02-13T06:42:25;23.00;;;12.50;;
62951;SDS011;52163;52.212;-1.002;2023-02-13T06:44:52;23.70;;;12.20;;
62951;SDS011;52163;52.212;-1.002;2023-02-13T06:47:17;23.00;;;12.60;;
62951;SDS011;52163;52.212;-1.002;2023-02-13T06:49:43;22.50;;;13.00;;
62951;SDS011;52163;52.212;-1.002;2023-02-13T06:52:08;21.70;;;12.30;;
62951;SDS011;52163;52.212;-1.002;2023-02-13T06:54:33;21.80;;;12.50;;
62951;SDS011;52163;52.212;-1.002;2023-02-13T06:56:59;26.00;;;13.70;;
62951;SDS011;52163;52.212;-1.002;2023-02-13T06:59:24;22.30;;;12.30;;
62951;SDS011;52163;52.212;-1.002;2023-02-13T07:01:49;25.40;;;13.10;;
62951;SDS011;52163;52.212;-1.002;2023-02-13T07:04:15;22.90;;;12.50;;
62951;SDS011;52163;52.212;-1.002;2023-02-13T07:06:40;24.90;;;12.50;;
62951;SDS011;52163;52.212;-1.002;2023-02-13T07:09:06;22.20;;;12.40;;
62951;SDS011;52163;52.212;-1.002;2023-02-13T07:11:31;22.60;;;12.10;;
62951;SDS011;52163;52.212;-1.002;2023-02-13T07:13:57;23.20;;;12.40;;
62951;SDS011;52163;52.212;-1.002;2023-02-13T07:16:22;23.70;;;12.50;;
62951;SDS011;52163;52.212;-1.002;2023-02-13T07:18:48;23.40;;;13.30;;
62951;SDS011;52163;52.212;-1.002;2023-02-13T07:21:13;23.00;;;13.20;;
62951;SDS011;52163;52.212;-1.002;2023-02-13T07:23:38;20.40;;;12.30;;
62951;SDS011;52163;52.212;-1.002;2023-02-13T07:26:04;23.30;;;12.70;;
62951;SDS011;52163;52.212;-1.002;2023-02-13T07:28:29;20.40;;;11.10;;
62951;SDS011;52163;52.212;-1.002;2023-02-13T07:30:55;21.50;;;11.50;;
62951;SDS011;52163;52.212;-1.002;2023-02-13T07:33:20;22.80;;;12.50;;
62951;SDS011;52163;52.212;-1.002;2023-02-13T07:35:46;23.30;;;13.10;;
62951;SDS011;52163;52.212;-1.002;2023-02-13T07:38:13;22.50;;;11.80;;
62951;SDS011;52163;52.212;-1.002;2023-02-13T07:40:39;21.20;;;12.10;;
62951;SDS011;52163;52.212;-1.002;2023-02-13T07:43:05;22.50;;;12.50;;
62951;SDS011;52163;52.212;-1.002;2023-02-13T07:45:30;22.50;;;13.40;;
62951;SDS011;52163;52.212;-1.002;2023-02-13T07:47:56;22.40;;;12.30;;
62951;SDS011;52163;52.212;-1.002;2023-02-13T07:50:22;25.50;;;13.60;;
62951;SDS011;52163;52.212;-1.002;2023-02-13T07:52:54;23.50;;;13.10;;
62951;SDS011;52163;52.212;-1.002;2023-02-13T07:55:24;22.50;;;12.80;;
62951;SDS011;52163;52.212;-1.002;2023-02-13T07:57:51;22.80;;;11.90;;
62951;SDS011;52163;52.212;-1.002;2023-02-13T08:00:17;24.70;;;12.80;;
62951;SDS011;52163;52.212;-1.002;2023-02-13T08:02:44;19.60;;;11.10;;
62951;SDS011;52163;52.212;-1.002;2023-02-13T08:05:09;23.00;;;12.00;;
62951;SDS011;52163;52.212;-1.002;2023-02-13T08:07:35;20.70;;;12.60;;
62951;SDS011;52163;52.212;-1.002;2023-02-13T08:10:00;21.80;;;12.50;;
62951;SDS011;52163;52.212;-1.002;2023-02-13T08:12:46;23.00;;;13.50;;
62951;SDS011;52163;52.212;-1.002;2023-02-13T08:15:12;26.00;;;14.20;;
62951;SDS011;52163;52.212;-1.002;2023-02-13T08:17:38;25.50;;;14.00;;
62951;SDS011;52163;52.212;-1.002;2023-02-13T08:20:05;25.00;;;14.70;;
62951;SDS011;52163;52.212;-1.002;2023-02-13T08:22:35;23.70;;;13.80;;
62951;SDS011;52163;52.212;-1.002;2023-02-13T08:25:02;27.20;;;14.40;;
62951;SDS011;52163;52.212;-1.002;2023-02-13T08:27:27;26.00;;;13.50;;
62951;SDS011;52163;52.212;-1.002;2023-02-13T08:29:57;23.60;;;13.30;;
62951;SDS011;52163;52.212;-1.002;2023-02-13T08:32:23;24.90;;;14.70;;
62951;SDS011;52163;52.212;-1.002;2023-02-13T08:34:49;23.00;;;13.70;;
62951;SDS011;52163;52.212;-1.002;2023-02-13T08:37:15;30.30;;;15.20;;
62951;SDS011;52163;52.212;-1.002;2023-02-13T08:39:41;25.20;;;14.00;;
62951;SDS011;52163;52.212;-1.002;2023-02-13T08:42:07;26.20;;;15.00;;
62951;SDS011;52163;52.212;-1.002;2023-02-13T08:44:33;23.60;;;13.40;;
62951;SDS011;52163;52.212;-1.002;2023-02-13T08:46:58;26.70;;;13.80;;
62951;SDS011;52163;52.212;-1.002;2023-02-13T08:49:28;26.90;;;13.80;;
62951;SDS011;52163;52.212;-1.002;2023-02-13T08:51:56;23.70;;;13.90;;
62951;SDS011;52163;52.212;-1.002;2023-02-13T08:54:22;24.50;;;14.40;;
62951;SDS011;52163;52.212;-1.002;2023-02-13T08:56:47;28.50;;;15.90;;
62951;SDS011;52163;52.212;-1.002;2023-02-13T08:59:13;27.90;;;14.30;;
62951;SDS011;52163;52.212;-1.002;2023-02-13T09:01:38;26.70;;;15.00;;
62951;SDS011;52163;52.212;-1.002;2023-02-13T09:04:04;23.00;;;13.80;;
62951;SDS011;52163;52.212;-1.002;2023-02-13T09:06:29;26.70;;;15.00;;
62951;SDS011;52163;52.212;-1.002;2023-02-13T09:08:55;28.90;;;16.30;;
62951;SDS011;52163;52.212;-1.002;2023-02-13T09:11:20;26.70;;;15.80;;
62951;SDS011;52163;52.212;-1.002;2023-02-13T09:13:47;27.30;;;15.60;;
62951;SDS011;52163;52.212;-1.002;2023-02-13T09:16:14;29.00;;;15.60;;
62951;SDS011;52163;52.212;-1.002;2023-02-13T09:18:40;30.60;;;16.70;;
62951;SDS011;52163;52.212;-1.002;2023-02-13T09:21:06;30.60;;;16.70;;
62951;SDS011;52163;52.212;-1.002;2023-02-13T09:23:35;27.40;;;16.20;;
62951;SDS011;52163;52.212;-1.002;2023-02-13T09:26:02;28.40;;;15.90;;
62951;SDS011;52163;52.212;-1.002;2023-02-13T09:28:30;28.20;;;17.10;;
62951;SDS011;52163;52.212;-1.002;2023-02-13T09:30:57;30.70;;;16.80;;
62951;SDS011;52163;52.212;-1.002;2023-02-13T09:33:23;27.30;;;16.30;;
62951;SDS011;52163;52.212;-1.002;2023-02-13T09:35:49;28.40;;;16.30;;
62951;SDS011;52163;52.212;-1.002;2023-02-13T09:38:15;26.70;;;15.60;;
62951;SDS011;52163;52.212;-1.002;2023-02-13T09:40:48;30.50;;;17.80;;
62951;SDS011;52163;52.212;-1.002;2023-02-13T09:43:23;30.90;;;16.30;;
62951;SDS011;52163;52.212;-1.002;2023-02-13T09:45:54;30.80;;;17.00;;
62951;SDS011;52163;52.212;-1.002;2023-02-13T09:48:31;31.30;;;16.90;;
62951;SDS011;52163;52.212;-1.002;2023-02-13T09:51:00;28.60;;;16.70;;
62951;SDS011;52163;52.212;-1.002;2023-02-13T09:53:27;28.70;;;16.50;;
62951;SDS011;52163;52.212;-1.002;2023-02-13T09:58:45;29.00;;;16.80;;
62951;SDS011;52163;52.212;-1.002;2023-02-13T10:01:17;27.90;;;16.30;;
62951;SDS011;52163;52.212;-1.002;2023-02-13T10:10:01;28.90;;;15.10;;
62951;SDS011;52163;52.212;-1.002;2023-02-13T10:12:49;28.80;;;16.30;;
62951;SDS011;52163;52.212;-1.002;2023-02-13T10:15:20;29.70;;;17.40;;
62951;SDS011;52163;52.212;-1.002;2023-02-13T10:17:49;28.40;;;15.80;;
62951;SDS011;52163;52.212;-1.002;2023-02-13T10:20:36;27.10;;;14.30;;
62951;SDS011;52163;52.212;-1.002;2023-02-13T10:31:37;27.50;;;16.10;;
62951;SDS011;52163;52.212;-1.002;2023-02-13T10:34:04;27.10;;;17.20;;
62951;SDS011;52163;52.212;-1.002;2023-02-13T10:36:36;29.90;;;17.70;;
62951;SDS011;52163;52.212;-1.002;2023-02-13T10:47:02;26.90;;;15.80;;
62951;SDS011;52163;52.212;-1.002;2023-02-13T11:03:24;31.40;;;18.10;;
62951;SDS011;52163;52.212;-1.002;2023-02-13T11:05:52;30.40;;;18.50;;
62951;SDS011;52163;52.212;-1.002;2023-02-13T11:08:27;29.60;;;17.90;;
62951;SDS011;52163;52.212;-1.002;2023-02-13T11:10:57;27.80;;;16.20;;
62951;SDS011;52163;52.212;-1.002;2023-02-13T11:13:24;29.10;;;16.50;;
62951;SDS011;52163;52.212;-1.002;2023-02-13T11:15:55;30.40;;;17.10;;
62951;SDS011;52163;52.212;-1.002;2023-02-13T11:18:34;31.40;;;16.70;;
62951;SDS011;52163;52.212;-1.002;2023-02-13T11:21:21;28.20;;;16.80;;
62951;SDS011;52163;52.212;-1.002;2023-02-13T11:23:58;26.70;;;15.90;;
62951;SDS011;52163;52.212;-1.002;2023-02-13T11:28:56;29.30;;;16.20;;
62951;SDS011;52163;52.212;-1.002;2023-02-13T11:31:34;30.10;;;15.70;;
62951;SDS011;52163;52.212;-1.002;2023-02-13T11:36:46;36.40;;;17.10;;
62951;SDS011;52163;52.212;-1.002;2023-02-13T11:39:20;26.40;;;15.90;;
62951;SDS011;52163;52.212;-1.002;2023-02-13T11:41:47;26.80;;;16.00;;
62951;SDS011;52163;52.212;-1.002;2023-02-13T11:44:22;25.40;;;16.10;;
62951;SDS011;52163;52.212;-1.002;2023-02-13T11:46:55;28.30;;;16.50;;
62951;SDS011;52163;52.212;-1.002;2023-02-13T11:49:23;26.50;;;15.70;;
62951;SDS011;52163;52.212;-1.002;2023-02-13T11:51:55;27.80;;;15.50;;
62951;SDS011;52163;52.212;-1.002;2023-02-13T11:54:33;26.90;;;16.60;;
62951;SDS011;52163;52.212;-1.002;2023-02-13T11:59:52;28.80;;;16.60;;
62951;SDS011;52163;52.212;-1.002;2023-02-13T12:02:19;25.80;;;16.20;;
62951;SDS011;52163;52.212;-1.002;2023-02-13T12:04:47;32.40;;;17.40;;
62951;SDS011;52163;52.212;-1.002;2023-02-13T12:07:25;28.50;;;16.10;;
62951;SDS011;52163;52.212;-1.002;2023-02-13T12:09:56;31.50;;;16.10;;
62951;SDS011;52163;52.212;-1.002;2023-02-13T12:12:37;29.10;;;16.70;;
62951;SDS011;52163;52.212;-1.002;2023-02-13T12:15:34;26.50;;;15.90;;
62951;SDS011;52163;52.212;-1.002;2023-02-13T12:26:30;30.60;;;16.80;;
62951;SDS011;52163;52.212;-1.002;2023-02-13T12:39:47;25.60;;;15.20;;
62951;SDS011;52163;52.212;-1.002;2023-02-13T12:48:07;25.10;;;14.30;;
62951;SDS011;52163;52.212;-1.002;2023-02-13T13:00:17;27.00;;;15.20;;
62951;SDS011;52163;52.212;-1.002;2023-02-13T13:22:17;24.50;;;14.20;;
62951;SDS011;52163;52.212;-1.002;2023-02-13T13:27:50;28.00;;;15.70;;
62951;SDS011;52163;52.212;-1.002;2023-02-13T13:30:25;27.20;;;14.70;;
62951;SDS011;52163;52.212;-1.002;2023-02-13T13:32:55;27.10;;;15.90;;
62951;SDS011;52163;52.212;-1.002;2023-02-13T13:35:37;26.50;;;15.00;;
62951;SDS011;52163;52.212;-1.002;2023-02-13T13:38:17;28.20;;;16.60;;
62951;SDS011;52163;52.212;-1.002;2023-02-13T13:43:27;28.30;;;15.70;;
62951;SDS011;52163;52.212;-1.002;2023-02-13T13:51:47;26.70;;;14.50;;
62951;SDS011;52163;52.212;-1.002;2023-02-13T13:54:17;27.40;;;15.00;;
62951;SDS011;52163;52.212;-1.002;2023-02-13T14:04:43;28.70;;;16.40;;
62951;SDS011;52163;52.212;-1.002;2023-02-13T14:07:43;25.20;;;14.50;;
62951;SDS011;52163;52.212;-1.002;2023-02-13T14:12:49;26.80;;;15.90;;
62951;SDS011;52163;52.212;-1.002;2023-02-13T14:16:10;24.40;;;14.80;;
62951;SDS011;52163;52.212;-1.002;2023-02-13T14:18:18;27.70;;;15.40;;
62951;SDS011;52163;52.212;-1.002;2023-02-13T14:26:12;27.90;;;15.80;;
62951;SDS011;52163;52.212;-1.002;2023-02-13T14:33:56;27.40;;;15.20;;
62951;SDS011;52163;52.212;-1.002;2023-02-13T14:36:30;26.90;;;15.60;;
62951;SDS011;52163;52.212;-1.002;2023-02-13T14:39:02;27.60;;;16.00;;
62951;SDS011;52163;52.212;-1.002;2023-02-13T14:47:19;23.70;;;15.00;;
62951;SDS011;52163;52.212;-1.002;2023-02-13T14:49:51;27.00;;;15.40;;
62951;SDS011;52163;52.212;-1.002;2023-02-13T14:52:21;25.00;;;15.30;;
62951;SDS011;52163;52.212;-1.002;2023-02-13T14:54:55;24.00;;;13.40;;
62951;SDS011;52163;52.212;-1.002;2023-02-13T14:57:28;28.50;;;15.80;;
62951;SDS011;52163;52.212;-1.002;2023-02-13T14:59:58;26.90;;;16.00;;
62951;SDS011;52163;52.212;-1.002;2023-02-13T15:02:30;27.30;;;15.50;;
62951;SDS011;52163;52.212;-1.002;2023-02-13T15:05:06;26.70;;;16.60;;
62951;SDS011;52163;52.212;-1.002;2023-02-13T15:07:40;26.00;;;15.50;;
62951;SDS011;52163;52.212;-1.002;2023-02-13T15:10:30;24.90;;;14.70;;
62951;SDS011;52163;52.212;-1.002;2023-02-13T15:13:04;23.90;;;13.90;;
62951;SDS011;52163;52.212;-1.002;2023-02-13T15:15:33;27.20;;;14.60;;
62951;SDS011;52163;52.212;-1.002;2023-02-13T15:18:01;24.80;;;14.40;;
62951;SDS011;52163;52.212;-1.002;2023-02-13T15:20:33;25.80;;;14.30;;
62951;SDS011;52163;52.212;-1.002;2023-02-13T15:23:00;25.40;;;14.70;;
62951;SDS011;52163;52.212;-1.002;2023-02-13T15:25:35;28.20;;;16.20;;
62951;SDS011;52163;52.212;-1.002;2023-02-13T15:28:02;24.50;;;14.60;;
62951;SDS011;52163;52.212;-1.002;2023-02-13T15:30:39;25.90;;;14.80;;
62951;SDS011;52163;52.212;-1.002;2023-02-13T15:33:17;24.20;;;14.20;;
62951;SDS011;52163;52.212;-1.002;2023-02-13T15:35:44;27.20;;;15.10;;
62951;SDS011;52163;52.212;-1.002;2023-02-13T15:38:18;28.10;;;15.00;;
62951;SDS011;52163;52.212;-1.002;2023-02-13T15:40:43;28.10;;;16.40;;
62951;SDS011;52163;52.212;-1.002;2023-02-13T15:45:59;33.90;;;17.20;;
62951;SDS011;52163;52.212;-1.002;2023-02-13T15:48:27;29.20;;;15.90;;
62951;SDS011;52163;52.212;-1.002;2023-02-13T15:50:55;27.90;;;14.80;;
62951;SDS011;52163;52.212;-1.002;2023-02-13T15:53:22;25.60;;;15.00;;
62951;SDS011;52163;52.212;-1.002;2023-02-13T15:55:55;29.30;;;16.40;;
62951;SDS011;52163;52.212;-1.002;2023-02-13T15:58:25;25.30;;;15.30;;
62951;SDS011;52163;52.212;-1.002;2023-02-13T16:00:54;27.10;;;15.30;;
62951;SDS011;52163;52.212;-1.002;2023-02-13T16:03:20;28.00;;;16.20;;
62951;SDS011;52163;52.212;-1.002;2023-02-13T16:05:49;31.70;;;16.10;;
62951;SDS011;52163;52.212;-1.002;2023-02-13T16:14:43;29.30;;;15.50;;
62951;SDS011;52163;52.212;-1.002;2023-02-13T16:22:17;26.40;;;16.10;;
62951;SDS011;52163;52.212;-1.002;2023-02-13T16:28:20;26.80;;;15.30;;
62951;SDS011;52163;52.212;-1.002;2023-02-13T16:30:51;26.60;;;16.00;;
62951;SDS011;52163;52.212;-1.002;2023-02-13T16:33:22;25.60;;;15.60;;
62951;SDS011;52163;52.212;-1.002;2023-02-13T16:35:49;25.90;;;15.30;;
62951;SDS011;52163;52.212;-1.002;2023-02-13T16:40:54;26.40;;;15.20;;
62951;SDS011;52163;52.212;-1.002;2023-02-13T16:43:35;25.70;;;14.10;;
62951;SDS011;52163;52.212;-1.002;2023-02-13T16:51:43;29.90;;;15.50;;
62951;SDS011;52163;52.212;-1.002;2023-02-13T16:56:50;23.30;;;13.30;;
62951;SDS011;52163;52.212;-1.002;2023-02-13T17:02:13;26.90;;;14.30;;
62951;SDS011;52163;52.212;-1.002;2023-02-13T17:10:24;24.30;;;13.50;;
62951;SDS011;52163;52.212;-1.002;2023-02-13T17:12:52;23.70;;;14.20;;
62951;SDS011;52163;52.212;-1.002;2023-02-13T17:15:20;24.00;;;13.20;;
62951;SDS011;52163;52.212;-1.002;2023-02-13T17:17:48;24.80;;;14.30;;
62951;SDS011;52163;52.212;-1.002;2023-02-13T17:20:22;27.00;;;14.80;;
62951;SDS011;52163;52.212;-1.002;2023-02-13T17:22:53;25.10;;;13.90;;
62951;SDS011;52163;52.212;-1.002;2023-02-13T17:25:21;24.70;;;14.30;;
62951;SDS011;52163;52.212;-1.002;2023-02-13T17:28:11;23.20;;;12.90;;
62951;SDS011;52163;52.212;-1.002;2023-02-13T17:30:38;22.50;;;12.80;;
62951;SDS011;52163;52.212;-1.002;2023-02-13T17:33:06;23.80;;;13.60;;
62951;SDS011;52163;52.212;-1.002;2023-02-13T17:35:36;22.40;;;14.20;;
62951;SDS011;52163;52.212;-1.002;2023-02-13T17:38:02;27.50;;;14.60;;
62951;SDS011;52163;52.212;-1.002;2023-02-13T17:40:28;27.70;;;15.30;;
62951;SDS011;52163;52.212;-1.002;2023-02-13T17:42:56;25.50;;;14.50;;
62951;SDS011;52163;52.212;-1.002;2023-02-13T17:45:23;27.60;;;15.80;;
62951;SDS011;52163;52.212;-1.002;2023-02-13T17:47:50;27.10;;;14.50;;
62951;SDS011;52163;52.212;-1.002;2023-02-13T17:50:16;27.80;;;13.90;;
62951;SDS011;52163;52.212;-1.002;2023-02-13T17:52:42;26.30;;;16.20;;
62951;SDS011;52163;52.212;-1.002;2023-02-13T17:57:42;26.40;;;15.10;;
62951;SDS011;52163;52.212;-1.002;2023-02-13T18:00:08;29.60;;;15.20;;
62951;SDS011;52163;52.212;-1.002;2023-02-13T18:02:34;26.60;;;14.80;;
62951;SDS011;52163;52.212;-1.002;2023-02-13T18:04:59;26.10;;;14.40;;
62951;SDS011;52163;52.212;-1.002;2023-02-13T18:07:25;27.50;;;15.30;;
62951;SDS011;52163;52.212;-1.002;2023-02-13T18:09:50;27.80;;;14.80;;